sensor_id;sensor_type;location;lat;lon;timestamp;P1;durP1;ratioP1;P2;durP2;ratioP2
2107;SDS011;1060;52.492;13.388;2022-12-04T00:00:29;77.82;;;48.65;;
2107;SDS011;1060;52.492;13.388;2022-12-04T00:03:01;84.38;;;51.70;;
2107;SDS011;1060;52.492;13.388;2022-12-04T00:05:41;87.50;;;50.38;;
2107;SDS011;1060;52.492;13.388;2022-12-04T00:14:05;87.93;;;49.13;;
2107;SDS011;1060;52.492;13.388;2022-12-04T00:16:31;85.18;;;49.22;;
2107;SDS011;1060;52.492;13.388;2022-12-04T00:19:13;86.78;;;48.42;;
2107;SDS011;1060;52.492;13.388;2022-12-04T00:21:43;77.97;;;48.45;;
2107;SDS011;1060;52.492;13.388;2022-12-04T00:24:19;87.03;;;46.13;;
2107;SDS011;1060;52.492;13.388;2022-12-04T00:26:55;92.10;;;48.40;;
2107;SDS011;1060;52.492;13.388;2022-12-04T00:29:31;92.32;;;51.83;;
2107;SDS011;1060;52.492;13.388;2022-12-04T00:32:00;85.28;;;49.55;;
2107;SDS011;1060;52.492;13.388;2022-12-04T00:34:32;101.68;;;52.47;;
2107;SDS011;1060;52.492;13.388;2022-12-04T00:37:02;92.13;;;48.58;;
2107;SDS011;1060;52.492;13.388;2022-12-04T00:39:34;91.25;;;52.65;;
2107;SDS011;1060;52.492;13.388;2022-12-04T00:42:04;101.07;;;58.00;;
2107;SDS011;1060;52.492;13.388;2022-12-04T00:44:30;89.78;;;55.92;;
2107;SDS011;1060;52.492;13.388;2022-12-04T00:46:59;96.78;;;55.15;;
2107;SDS011;1060;52.492;13.388;2022-12-04T00:49:25;96.03;;;53.83;;
2107;SDS011;1060;52.492;13.388;2022-12-04T00:51:55;96.75;;;53.15;;
2107;SDS011;1060;52.492;13.388;2022-12-04T00:55:01;84.40;;;51.78;;
2107;SDS011;1060;52.492;13.388;2022-12-04T00:57:40;100.72;;;54.25;;
2107;SDS011;1060;52.492;13.388;2022-12-04T01:00:26;89.85;;;50.63;;
2107;SDS011;1060;52.492;13.388;2022-12-04T01:03:02;94.25;;;53.08;;
2107;SDS011;1060;52.492;13.388;2022-12-04T01:05:44;93.10;;;56.58;;
2107;SDS011;1060;52.492;13.388;2022-12-04T01:08:22;105.80;;;55.05;;
2107;SDS011;1060;52.492;13.388;2022-12-04T01:10:52;92.32;;;49.88;;
2107;SDS011;1060;52.492;13.388;2022-12-04T01:13:26;81.20;;;46.28;;
2107;SDS011;1060;52.492;13.388;2022-12-04T01:15:55;96.03;;;50.40;;
2107;SDS011;1060;52.492;13.388;2022-12-04T01:18:31;102.75;;;56.38;;
2107;SDS011;1060;52.492;13.388;2022-12-04T01:21:06;99.10;;;56.67;;
2107;SDS011;1060;52.492;13.388;2022-12-04T01:26:36;88.38;;;53.47;;
2107;SDS011;1060;52.492;13.388;2022-12-04T01:29:34;91.07;;;55.60;;
2107;SDS011;1060;52.492;13.388;2022-12-04T01:36:02;91.75;;;53.13;;
2107;SDS011;1060;52.492;13.388;2022-12-04T01:42:34;87.72;;;50.60;;
2107;SDS011;1060;52.492;13.388;2022-12-04T01:48:02;98.68;;;56.53;;
2107;SDS011;1060;52.492;13.388;2022-12-04T01:53:54;102.38;;;55.60;;
2107;SDS011;1060;52.492;13.388;2022-12-04T01:56:25;97.95;;;57.58;;
2107;SDS011;1060;52.492;13.388;2022-12-04T01:58:56;104.40;;;56.35;;
2107;SDS011;1060;52.492;13.388;2022-12-04T02:01:26;104.38;;;55.38;;
2107;SDS011;1060;52.492;13.388;2022-12-04T02:04:00;103.38;;;57.53;;
2107;SDS011;1060;52.492;13.388;2022-12-04T02:06:29;114.05;;;60.97;;
2107;SDS011;1060;52.492;13.388;2022-12-04T02:09:02;97.57;;;56.10;;
2107;SDS011;1060;52.492;13.388;2022-12-04T02:16:55;117.50;;;59.33;;
2107;SDS011;1060;52.492;13.388;2022-12-04T02:21:52;103.18;;;59.33;;
2107;SDS011;1060;52.492;13.388;2022-12-04T02:32:37;126.22;;;58.35;;
2107;SDS011;1060;52.492;13.388;2022-12-04T02:37:49;117.20;;;57.63;;
2107;SDS011;1060;52.492;13.388;2022-12-04T02:40:28;108.13;;;59.20;;
2107;SDS011;1060;52.492;13.388;2022-12-04T02:43:16;106.80;;;55.95;;
2107;SDS011;1060;52.492;13.388;2022-12-04T02:45:45;108.85;;;57.58;;
2107;SDS011;1060;52.492;13.388;2022-12-04T02:48:14;121.75;;;64.88;;
2107;SDS011;1060;52.492;13.388;2022-12-04T02:50:58;117.70;;;61.05;;
2107;SDS011;1060;52.492;13.388;2022-12-04T02:53:38;103.70;;;56.30;;
2107;SDS011;1060;52.492;13.388;2022-12-04T02:56:25;115.70;;;59.45;;
2107;SDS011;1060;52.492;13.388;2022-12-04T02:58:56;111.45;;;61.00;;
2107;SDS011;1060;52.492;13.388;2022-12-04T03:01:37;113.22;;;64.72;;
2107;SDS011;1060;52.492;13.388;2022-12-04T03:04:29;112.78;;;58.38;;
2107;SDS011;1060;52.492;13.388;2022-12-04T03:07:30;129.38;;;62.67;;
2107;SDS011;1060;52.492;13.388;2022-12-04T03:10:04;93.70;;;53.65;;
2107;SDS011;1060;52.492;13.388;2022-12-04T03:12:42;121.28;;;61.20;;
2107;SDS011;1060;52.492;13.388;2022-12-04T03:15:17;127.93;;;65.30;;
2107;SDS011;1060;52.492;13.388;2022-12-04T03:17:49;126.07;;;62.28;;
2107;SDS011;1060;52.492;13.388;2022-12-04T03:20:20;103.10;;;57.70;;
2107;SDS011;1060;52.492;13.388;2022-12-04T03:26:18;107.32;;;58.40;;
2107;SDS011;1060;52.492;13.388;2022-12-04T03:31:24;122.25;;;63.38;;
2107;SDS011;1060;52.492;13.388;2022-12-04T03:33:56;99.57;;;58.65;;
2107;SDS011;1060;52.492;13.388;2022-12-04T03:36:33;134.20;;;61.58;;
2107;SDS011;1060;52.492;13.388;2022-12-04T03:39:24;103.82;;;55.88;;
2107;SDS011;1060;52.492;13.388;2022-12-04T03:42:03;121.35;;;65.18;;
2107;SDS011;1060;52.492;13.388;2022-12-04T03:47:28;112.80;;;60.97;;
2107;SDS011;1060;52.492;13.388;2022-12-04T03:50:06;107.22;;;58.45;;
2107;SDS011;1060;52.492;13.388;2022-12-04T03:55:10;113.82;;;59.58;;
2107;SDS011;1060;52.492;13.388;2022-12-04T03:57:40;113.10;;;58.63;;
2107;SDS011;1060;52.492;13.388;2022-12-04T04:00:18;125.05;;;58.70;;
2107;SDS011;1060;52.492;13.388;2022-12-04T04:05:14;97.82;;;59.30;;
2107;SDS011;1060;52.492;13.388;2022-12-04T04:07:51;103.18;;;58.70;;
2107;SDS011;1060;52.492;13.388;2022-12-04T04:10:19;111.03;;;60.10;;
2107;SDS011;1060;52.492;13.388;2022-12-04T04:12:48;104.45;;;56.53;;
2107;SDS011;1060;52.492;13.388;2022-12-04T04:15:40;98.07;;;58.28;;
2107;SDS011;1060;52.492;13.388;2022-12-04T04:18:26;97.47;;;53.47;;
2107;SDS011;1060;52.492;13.388;2022-12-04T04:21:12;96.00;;;54.53;;
2107;SDS011;1060;52.492;13.388;2022-12-04T04:24:09;97.15;;;57.45;;
2107;SDS011;1060;52.492;13.388;2022-12-04T04:26:49;99.50;;;60.00;;
2107;SDS011;1060;52.492;13.388;2022-12-04T04:29:19;100.03;;;50.53;;
2107;SDS011;1060;52.492;13.388;2022-12-04T04:37:28;103.20;;;55.42;;
2107;SDS011;1060;52.492;13.388;2022-12-04T04:40:23;98.20;;;55.17;;
2107;SDS011;1060;52.492;13.388;2022-12-04T04:43:07;107.18;;;53.33;;
2107;SDS011;1060;52.492;13.388;2022-12-04T04:45:42;115.82;;;59.58;;
2107;SDS011;1060;52.492;13.388;2022-12-04T04:48:27;105.45;;;56.35;;
2107;SDS011;1060;52.492;13.388;2022-12-04T04:50:55;101.97;;;56.00;;
2107;SDS011;1060;52.492;13.388;2022-12-04T04:53:46;97.95;;;59.38;;
2107;SDS011;1060;52.492;13.388;2022-12-04T04:56:22;97.15;;;54.45;;
2107;SDS011;1060;52.492;13.388;2022-12-04T04:59:05;109.15;;;55.90;;
2107;SDS011;1060;52.492;13.388;2022-12-04T05:01:32;104.78;;;55.83;;
2107;SDS011;1060;52.492;13.388;2022-12-04T05:03:58;93.07;;;54.20;;
2107;SDS011;1060;52.492;13.388;2022-12-04T05:06:27;99.28;;;56.78;;
2107;SDS011;1060;52.492;13.388;2022-12-04T05:11:43;93.68;;;54.92;;
2107;SDS011;1060;52.492;13.388;2022-12-04T05:14:12;97.45;;;54.30;;
2107;SDS011;1060;52.492;13.388;2022-12-04T05:16:43;88.03;;;49.97;;
2107;SDS011;1060;52.492;13.388;2022-12-04T05:19:12;79.97;;;50.72;;
2107;SDS011;1060;52.492;13.388;2022-12-04T05:22:24;95.65;;;52.53;;
2107;SDS011;1060;52.492;13.388;2022-12-04T05:24:51;88.60;;;50.53;;
2107;SDS011;1060;52.492;13.388;2022-12-04T05:27:18;107.50;;;55.90;;
2107;SDS011;1060;52.492;13.388;2022-12-04T05:30:05;89.90;;;52.45;;
2107;SDS011;1060;52.492;13.388;2022-12-04T05:32:31;80.97;;;51.65;;
2107;SDS011;1060;52.492;13.388;2022-12-04T05:34:57;106.38;;;54.53;;
2107;SDS011;1060;52.492;13.388;2022-12-04T05:40:20;91.47;;;47.10;;
2107;SDS011;1060;52.492;13.388;2022-12-04T05:42:46;99.43;;;53.33;;
2107;SDS011;1060;52.492;13.388;2022-12-04T05:45:17;96.85;;;51.97;;
2107;SDS011;1060;52.492;13.388;2022-12-04T05:47:43;100.22;;;51.67;;
2107;SDS011;1060;52.492;13.388;2022-12-04T05:50:16;107.38;;;53.38;;
2107;SDS011;1060;52.492;13.388;2022-12-04T05:52:45;83.75;;;50.83;;
2107;SDS011;1060;52.492;13.388;2022-12-04T05:55:27;83.88;;;50.17;;
2107;SDS011;1060;52.492;13.388;2022-12-04T05:57:53;112.32;;;62.72;;
2107;SDS011;1060;52.492;13.388;2022-12-04T06:00:20;89.75;;;52.42;;
2107;SDS011;1060;52.492;13.388;2022-12-04T06:02:46;97.50;;;56.10;;
2107;SDS011;1060;52.492;13.388;2022-12-04T06:05:13;94.18;;;53.78;;
2107;SDS011;1060;52.492;13.388;2022-12-04T06:07:42;101.47;;;52.58;;
2107;SDS011;1060;52.492;13.388;2022-12-04T06:10:17;105.35;;;56.88;;
2107;SDS011;1060;52.492;13.388;2022-12-04T06:12:46;90.47;;;54.83;;
2107;SDS011;1060;52.492;13.388;2022-12-04T06:15:27;95.95;;;53.80;;
2107;SDS011;1060;52.492;13.388;2022-12-04T06:17:54;80.25;;;51.70;;
2107;SDS011;1060;52.492;13.388;2022-12-04T06:20:20;85.78;;;51.45;;
2107;SDS011;1060;52.492;13.388;2022-12-04T06:22:46;84.13;;;51.05;;
2107;SDS011;1060;52.492;13.388;2022-12-04T06:25:12;84.18;;;51.33;;
2107;SDS011;1060;52.492;13.388;2022-12-04T06:27:39;88.95;;;50.47;;
2107;SDS011;1060;52.492;13.388;2022-12-04T06:30:09;93.25;;;53.90;;
2107;SDS011;1060;52.492;13.388;2022-12-04T06:32:38;97.22;;;52.03;;
2107;SDS011;1060;52.492;13.388;2022-12-04T06:35:04;84.63;;;48.67;;
2107;SDS011;1060;52.492;13.388;2022-12-04T06:37:32;92.80;;;52.45;;
2107;SDS011;1060;52.492;13.388;2022-12-04T06:40:09;84.63;;;49.80;;
2107;SDS011;1060;52.492;13.388;2022-12-04T06:42:44;87.18;;;53.33;;
2107;SDS011;1060;52.492;13.388;2022-12-04T06:45:17;87.22;;;51.13;;
2107;SDS011;1060;52.492;13.388;2022-12-04T06:47:43;86.88;;;47.78;;
2107;SDS011;1060;52.492;13.388;2022-12-04T06:50:40;91.95;;;50.15;;
2107;SDS011;1060;52.492;13.388;2022-12-04T06:53:11;81.45;;;50.67;;
2107;SDS011;1060;52.492;13.388;2022-12-04T06:55:46;100.45;;;54.20;;
2107;SDS011;1060;52.492;13.388;2022-12-04T06:58:15;93.07;;;51.53;;
2107;SDS011;1060;52.492;13.388;2022-12-04T07:03:32;96.50;;;56.95;;
2107;SDS011;1060;52.492;13.388;2022-12-04T07:05:59;87.40;;;58.58;;
2107;SDS011;1060;52.492;13.388;2022-12-04T07:08:34;91.90;;;58.28;;
2107;SDS011;1060;52.492;13.388;2022-12-04T07:11:00;81.57;;;51.47;;
2107;SDS011;1060;52.492;13.388;2022-12-04T07:13:30;95.32;;;54.00;;
2107;SDS011;1060;52.492;13.388;2022-12-04T07:16:12;98.28;;;55.95;;
2107;SDS011;1060;52.492;13.388;2022-12-04T07:19:24;94.05;;;53.17;;
2107;SDS011;1060;52.492;13.388;2022-12-04T07:22:07;97.65;;;53.67;;
2107;SDS011;1060;52.492;13.388;2022-12-04T07:25:00;94.78;;;52.20;;
2107;SDS011;1060;52.492;13.388;2022-12-04T07:27:32;100.35;;;53.67;;
2107;SDS011;1060;52.492;13.388;2022-12-04T07:33:51;96.88;;;54.38;;
2107;SDS011;1060;52.492;13.388;2022-12-04T07:36:19;90.88;;;52.78;;
2107;SDS011;1060;52.492;13.388;2022-12-04T07:39:04;79.80;;;49.63;;
2107;SDS011;1060;52.492;13.388;2022-12-04T07:44:40;88.65;;;50.90;;
2107;SDS011;1060;52.492;13.388;2022-12-04T07:47:06;95.00;;;51.47;;
2107;SDS011;1060;52.492;13.388;2022-12-04T07:49:35;103.35;;;54.05;;
2107;SDS011;1060;52.492;13.388;2022-12-04T07:52:02;90.95;;;51.05;;
2107;SDS011;1060;52.492;13.388;2022-12-04T07:54:28;83.90;;;46.97;;
2107;SDS011;1060;52.492;13.388;2022-12-04T07:56:55;90.75;;;51.53;;
2107;SDS011;1060;52.492;13.388;2022-12-04T07:59:21;82.35;;;48.97;;
2107;SDS011;1060;52.492;13.388;2022-12-04T08:01:57;82.68;;;50.58;;
2107;SDS011;1060;52.492;13.388;2022-12-04T08:05:11;96.55;;;53.92;;
2107;SDS011;1060;52.492;13.388;2022-12-04T08:07:28;72.53;;;46.78;;
2107;SDS011;1060;52.492;13.388;2022-12-04T08:10:05;93.55;;;48.53;;
2107;SDS011;1060;52.492;13.388;2022-12-04T08:12:40;86.20;;;49.92;;
2107;SDS011;1060;52.492;13.388;2022-12-04T08:15:16;79.85;;;56.88;;
2107;SDS011;1060;52.492;13.388;2022-12-04T08:17:50;94.20;;;51.72;;
2107;SDS011;1060;52.492;13.388;2022-12-04T08:20:19;80.32;;;54.40;;
2107;SDS011;1060;52.492;13.388;2022-12-04T08:22:59;85.65;;;54.33;;
2107;SDS011;1060;52.492;13.388;2022-12-04T08:25:29;96.32;;;51.20;;
2107;SDS011;1060;52.492;13.388;2022-12-04T08:27:58;83.45;;;50.92;;
2107;SDS011;1060;52.492;13.388;2022-12-04T08:30:33;83.13;;;54.05;;
2107;SDS011;1060;52.492;13.388;2022-12-04T08:33:08;82.40;;;49.15;;
2107;SDS011;1060;52.492;13.388;2022-12-04T08:35:39;83.70;;;48.53;;
2107;SDS011;1060;52.492;13.388;2022-12-04T08:38:07;92.45;;;53.65;;
2107;SDS011;1060;52.492;13.388;2022-12-04T08:40:37;105.13;;;53.83;;
2107;SDS011;1060;52.492;13.388;2022-12-04T08:43:03;81.05;;;49.90;;
2107;SDS011;1060;52.492;13.388;2022-12-04T08:45:29;83.38;;;46.53;;
2107;SDS011;1060;52.492;13.388;2022-12-04T08:48:05;106.40;;;52.22;;
2107;SDS011;1060;52.492;13.388;2022-12-04T08:50:31;86.50;;;48.55;;
2107;SDS011;1060;52.492;13.388;2022-12-04T08:52:58;87.43;;;49.20;;
2107;SDS011;1060;52.492;13.388;2022-12-04T08:55:24;86.90;;;48.65;;
2107;SDS011;1060;52.492;13.388;2022-12-04T08:57:53;95.13;;;51.75;;
2107;SDS011;1060;52.492;13.388;2022-12-04T09:00:22;84.80;;;52.13;;
2107;SDS011;1060;52.492;13.388;2022-12-04T09:02:51;97.78;;;52.05;;
2107;SDS011;1060;52.492;13.388;2022-12-04T09:05:20;90.65;;;48.67;;
2107;SDS011;1060;52.492;13.388;2022-12-04T09:07:46;84.95;;;47.25;;
2107;SDS011;1060;52.492;13.388;2022-12-04T09:10:13;87.70;;;47.03;;
2107;SDS011;1060;52.492;13.388;2022-12-04T09:12:39;89.97;;;55.42;;
2107;SDS011;1060;52.492;13.388;2022-12-04T09:15:08;76.00;;;47.47;;
2107;SDS011;1060;52.492;13.388;2022-12-04T09:17:41;82.80;;;44.90;;
2107;SDS011;1060;52.492;13.388;2022-12-04T09:20:07;78.78;;;44.25;;
2107;SDS011;1060;52.492;13.388;2022-12-04T09:22:36;92.78;;;50.15;;
2107;SDS011;1060;52.492;13.388;2022-12-04T09:25:08;73.05;;;49.20;;
2107;SDS011;1060;52.492;13.388;2022-12-04T09:27:36;72.00;;;46.25;;
2107;SDS011;1060;52.492;13.388;2022-12-04T09:30:14;78.55;;;46.45;;
2107;SDS011;1060;52.492;13.388;2022-12-04T09:32:43;77.85;;;47.28;;
2107;SDS011;1060;52.492;13.388;2022-12-04T09:35:20;81.57;;;46.78;;
2107;SDS011;1060;52.492;13.388;2022-12-04T09:37:48;73.78;;;46.00;;
2107;SDS011;1060;52.492;13.388;2022-12-04T09:40:38;78.95;;;51.40;;
2107;SDS011;1060;52.492;13.388;2022-12-04T09:47:02;69.20;;;43.58;;
2107;SDS011;1060;52.492;13.388;2022-12-04T09:49:40;73.13;;;48.70;;
2107;SDS011;1060;52.492;13.388;2022-12-04T11:48:42;58.70;;;39.10;;
2107;SDS011;1060;52.492;13.388;2022-12-04T11:53:45;58.17;;;40.20;;
2107;SDS011;1060;52.492;13.388;2022-12-04T11:56:35;62.95;;;41.92;;
2107;SDS011;1060;52.492;13.388;2022-12-04T11:59:11;62.25;;;39.88;;
2107;SDS011;1060;52.492;13.388;2022-12-04T12:01:55;54.80;;;36.45;;
2107;SDS011;1060;52.492;13.388;2022-12-04T12:10:05;50.40;;;39.03;;
2107;SDS011;1060;52.492;13.388;2022-12-04T12:31:04;60.40;;;40.58;;
2107;SDS011;1060;52.492;13.388;2022-12-04T12:33:35;59.22;;;37.65;;
2107;SDS011;1060;52.492;13.388;2022-12-04T12:36:11;57.72;;;37.60;;
2107;SDS011;1060;52.492;13.388;2022-12-04T12:38:50;73.05;;;38.63;;
2107;SDS011;1060;52.492;13.388;2022-12-04T12:41:20;59.38;;;37.58;;
2107;SDS011;1060;52.492;13.388;2022-12-04T12:44:10;59.42;;;39.53;;
2107;SDS011;1060;52.492;13.388;2022-12-04T12:46:41;66.55;;;38.75;;
2107;SDS011;1060;52.492;13.388;2022-12-04T12:49:24;63.35;;;40.55;;
2107;SDS011;1060;52.492;13.388;2022-12-04T12:51:57;63.35;;;42.40;;
2107;SDS011;1060;52.492;13.388;2022-12-04T12:54:29;60.25;;;41.97;;
2107;SDS011;1060;52.492;13.388;2022-12-04T12:57:11;60.90;;;38.00;;
2107;SDS011;1060;52.492;13.388;2022-12-04T12:59:45;64.82;;;39.90;;
2107;SDS011;1060;52.492;13.388;2022-12-04T13:02:28;64.13;;;38.92;;
2107;SDS011;1060;52.492;13.388;2022-12-04T13:04:59;58.45;;;40.45;;
2107;SDS011;1060;52.492;13.388;2022-12-04T13:07:31;64.45;;;39.10;;
2107;SDS011;1060;52.492;13.388;2022-12-04T13:10:06;61.40;;;41.40;;
2107;SDS011;1060;52.492;13.388;2022-12-04T13:12:43;55.65;;;38.00;;
2107;SDS011;1060;52.492;13.388;2022-12-04T13:18:28;69.57;;;41.90;;
2107;SDS011;1060;52.492;13.388;2022-12-04T13:21:02;69.90;;;42.72;;
2107;SDS011;1060;52.492;13.388;2022-12-04T13:29:02;69.15;;;42.17;;
2107;SDS011;1060;52.492;13.388;2022-12-04T13:31:36;56.15;;;38.83;;
2107;SDS011;1060;52.492;13.388;2022-12-04T13:37:53;60.67;;;41.33;;
2107;SDS011;1060;52.492;13.388;2022-12-04T13:42:45;66.75;;;40.10;;
2107;SDS011;1060;52.492;13.388;2022-12-04T13:45:25;63.03;;;41.33;;
2107;SDS011;1060;52.492;13.388;2022-12-04T13:47:59;71.18;;;45.92;;
2107;SDS011;1060;52.492;13.388;2022-12-04T13:50:44;65.65;;;41.47;;
2107;SDS011;1060;52.492;13.388;2022-12-04T13:55:59;58.28;;;37.33;;
2107;SDS011;1060;52.492;13.388;2022-12-04T13:59:17;60.83;;;40.22;;
2107;SDS011;1060;52.492;13.388;2022-12-04T14:05:09;66.75;;;41.72;;
2107;SDS011;1060;52.492;13.388;2022-12-04T14:07:37;66.60;;;40.90;;
2107;SDS011;1060;52.492;13.388;2022-12-04T14:18:53;60.65;;;42.05;;
2107;SDS011;1060;52.492;13.388;2022-12-04T14:21:20;78.00;;;44.47;;
2107;SDS011;1060;52.492;13.388;2022-12-04T14:23:47;64.90;;;41.90;;
2107;SDS011;1060;52.492;13.388;2022-12-04T14:26:28;63.83;;;45.05;;
2107;SDS011;1060;52.492;13.388;2022-12-04T14:31:50;74.95;;;45.90;;
2107;SDS011;1060;52.492;13.388;2022-12-04T14:34:21;74.38;;;45.90;;
2107;SDS011;1060;52.492;13.388;2022-12-04T14:36:50;71.78;;;44.42;;
2107;SDS011;1060;52.492;13.388;2022-12-04T14:39:39;75.22;;;43.78;;
2107;SDS011;1060;52.492;13.388;2022-12-04T14:42:26;72.63;;;42.90;;
2107;SDS011;1060;52.492;13.388;2022-12-04T14:44:58;74.72;;;49.00;;
2107;SDS011;1060;52.492;13.388;2022-12-04T14:58:24;87.40;;;48.40;;
2107;SDS011;1060;52.492;13.388;2022-12-04T15:01:03;84.55;;;46.95;;
2107;SDS011;1060;52.492;13.388;2022-12-04T15:03:39;79.30;;;45.83;;
2107;SDS011;1060;52.492;13.388;2022-12-04T15:06:10;79.75;;;48.20;;
2107;SDS011;1060;52.492;13.388;2022-12-04T15:09:01;85.15;;;45.35;;
2107;SDS011;1060;52.492;13.388;2022-12-04T15:11:54;84.40;;;46.03;;
2107;SDS011;1060;52.492;13.388;2022-12-04T15:15:03;98.18;;;48.88;;
2107;SDS011;1060;52.492;13.388;2022-12-04T15:17:29;92.20;;;44.33;;
2107;SDS011;1060;52.492;13.388;2022-12-04T15:20:15;82.05;;;45.88;;
2107;SDS011;1060;52.492;13.388;2022-12-04T15:22:42;98.75;;;50.85;;
2107;SDS011;1060;52.492;13.388;2022-12-04T15:25:18;79.03;;;45.42;;
2107;SDS011;1060;52.492;13.388;2022-12-04T15:27:45;90.57;;;49.78;;
2107;SDS011;1060;52.492;13.388;2022-12-04T15:30:14;110.70;;;50.58;;
2107;SDS011;1060;52.492;13.388;2022-12-04T15:32:44;92.90;;;52.00;;
2107;SDS011;1060;52.492;13.388;2022-12-04T15:35:14;97.75;;;51.50;;
2107;SDS011;1060;52.492;13.388;2022-12-04T15:37:48;87.70;;;47.70;;
2107;SDS011;1060;52.492;13.388;2022-12-04T15:40:24;101.03;;;54.83;;
2107;SDS011;1060;52.492;13.388;2022-12-04T15:42:50;98.90;;;51.25;;
2107;SDS011;1060;52.492;13.388;2022-12-04T15:47:50;102.88;;;53.90;;
2107;SDS011;1060;52.492;13.388;2022-12-04T15:52:49;106.85;;;57.42;;
2107;SDS011;1060;52.492;13.388;2022-12-04T15:55:20;95.10;;;50.92;;
2107;SDS011;1060;52.492;13.388;2022-12-04T15:57:54;104.75;;;52.55;;
2107;SDS011;1060;52.492;13.388;2022-12-04T16:00:34;126.55;;;52.60;;
2107;SDS011;1060;52.492;13.388;2022-12-04T16:03:17;94.13;;;47.42;;
2107;SDS011;1060;52.492;13.388;2022-12-04T16:08:40;99.53;;;59.40;;
2107;SDS011;1060;52.492;13.388;2022-12-04T16:11:21;122.13;;;58.55;;
2107;SDS011;1060;52.492;13.388;2022-12-04T16:16:50;126.60;;;58.47;;
2107;SDS011;1060;52.492;13.388;2022-12-04T16:21:53;120.50;;;61.55;;
2107;SDS011;1060;52.492;13.388;2022-12-04T16:24:23;124.85;;;61.45;;
2107;SDS011;1060;52.492;13.388;2022-12-04T16:26:55;127.28;;;64.60;;
2107;SDS011;1060;52.492;13.388;2022-12-04T16:29:36;130.57;;;63.42;;
2107;SDS011;1060;52.492;13.388;2022-12-04T16:32:02;148.32;;;64.82;;
2107;SDS011;1060;52.492;13.388;2022-12-04T16:34:39;117.82;;;60.92;;
2107;SDS011;1060;52.492;13.388;2022-12-04T16:37:12;115.20;;;58.08;;
2107;SDS011;1060;52.492;13.388;2022-12-04T16:39:39;125.90;;;61.35;;
2107;SDS011;1060;52.492;13.388;2022-12-04T16:42:18;112.32;;;57.10;;
2107;SDS011;1060;52.492;13.388;2022-12-04T16:44:47;140.40;;;60.67;;
2107;SDS011;1060;52.492;13.388;2022-12-04T16:47:16;128.93;;;64.70;;
2107;SDS011;1060;52.492;13.388;2022-12-04T16:49:46;140.43;;;64.18;;
2107;SDS011;1060;52.492;13.388;2022-12-04T16:52:13;135.60;;;61.40;;
2107;SDS011;1060;52.492;13.388;2022-12-04T16:55:12;124.05;;;57.28;;
2107;SDS011;1060;52.492;13.388;2022-12-04T16:57:45;120.22;;;55.38;;
2107;SDS011;1060;52.492;13.388;2022-12-04T17:00:13;141.27;;;62.10;;
2107;SDS011;1060;52.492;13.388;2022-12-04T17:02:47;124.38;;;59.28;;
2107;SDS011;1060;52.492;13.388;2022-12-04T17:05:28;135.10;;;65.07;;
2107;SDS011;1060;52.492;13.388;2022-12-04T17:08:09;144.65;;;62.25;;
2107;SDS011;1060;52.492;13.388;2022-12-04T17:10:35;138.38;;;63.85;;
2107;SDS011;1060;52.492;13.388;2022-12-04T17:13:04;149.88;;;67.13;;
2107;SDS011;1060;52.492;13.388;2022-12-04T17:15:36;154.57;;;69.00;;
2107;SDS011;1060;52.492;13.388;2022-12-04T17:18:20;150.85;;;64.72;;
2107;SDS011;1060;52.492;13.388;2022-12-04T17:20:53;153.25;;;69.63;;
2107;SDS011;1060;52.492;13.388;2022-12-04T17:23:38;138.63;;;67.10;;
2107;SDS011;1060;52.492;13.388;2022-12-04T17:26:09;143.32;;;62.67;;
2107;SDS011;1060;52.492;13.388;2022-12-04T17:31:19;144.82;;;67.47;;
2107;SDS011;1060;52.492;13.388;2022-12-04T17:37:44;150.13;;;71.40;;
2107;SDS011;1060;52.492;13.388;2022-12-04T17:43:58;155.10;;;69.00;;
2107;SDS011;1060;52.492;13.388;2022-12-04T17:52:49;145.23;;;64.88;;
2107;SDS011;1060;52.492;13.388;2022-12-04T17:55:34;129.48;;;59.20;;
2107;SDS011;1060;52.492;13.388;2022-12-04T17:58:14;160.77;;;70.20;;
2107;SDS011;1060;52.492;13.388;2022-12-04T18:00:53;152.15;;;65.50;;
2107;SDS011;1060;52.492;13.388;2022-12-04T18:03:48;152.45;;;65.50;;
2107;SDS011;1060;52.492;13.388;2022-12-04T18:06:53;153.90;;;68.10;;
2107;SDS011;1060;52.492;13.388;2022-12-04T18:10:35;158.30;;;66.70;;
2107;SDS011;1060;52.492;13.388;2022-12-04T18:13:16;154.25;;;71.50;;
2107;SDS011;1060;52.492;13.388;2022-12-04T18:16:24;146.55;;;70.88;;
2107;SDS011;1060;52.492;13.388;2022-12-04T18:18:59;154.23;;;79.13;;
2107;SDS011;1060;52.492;13.388;2022-12-04T18:21:38;155.48;;;73.40;;
2107;SDS011;1060;52.492;13.388;2022-12-04T18:24:12;162.90;;;71.97;;
2107;SDS011;1060;52.492;13.388;2022-12-04T18:27:02;131.32;;;63.75;;
2107;SDS011;1060;52.492;13.388;2022-12-04T18:33:02;149.93;;;66.03;;
2107;SDS011;1060;52.492;13.388;2022-12-04T18:36:02;157.35;;;68.32;;
2107;SDS011;1060;52.492;13.388;2022-12-04T18:38:51;151.25;;;68.63;;
2107;SDS011;1060;52.492;13.388;2022-12-04T18:42:05;135.38;;;60.83;;
2107;SDS011;1060;52.492;13.388;2022-12-04T18:44:59;135.82;;;61.35;;
2107;SDS011;1060;52.492;13.388;2022-12-04T18:47:31;158.20;;;71.13;;
2107;SDS011;1060;52.492;13.388;2022-12-04T18:50:16;130.23;;;67.38;;
2107;SDS011;1060;52.492;13.388;2022-12-04T18:53:27;167.23;;;69.32;;
2107;SDS011;1060;52.492;13.388;2022-12-04T18:56:26;146.48;;;72.63;;
2107;SDS011;1060;52.492;13.388;2022-12-04T18:59:47;130.80;;;66.03;;
2107;SDS011;1060;52.492;13.388;2022-12-04T19:02:43;134.30;;;67.60;;
2107;SDS011;1060;52.492;13.388;2022-12-04T19:05:35;147.75;;;71.63;;
2107;SDS011;1060;52.492;13.388;2022-12-04T19:08:02;157.27;;;76.30;;
2107;SDS011;1060;52.492;13.388;2022-12-04T19:10:35;132.77;;;61.55;;
2107;SDS011;1060;52.492;13.388;2022-12-04T19:13:13;161.18;;;71.88;;
2107;SDS011;1060;52.492;13.388;2022-12-04T19:16:24;133.63;;;67.95;;
2107;SDS011;1060;52.492;13.388;2022-12-04T19:18:51;141.73;;;64.95;;
2107;SDS011;1060;52.492;13.388;2022-12-04T19:21:20;138.98;;;71.68;;
2107;SDS011;1060;52.492;13.388;2022-12-04T19:23:52;151.60;;;69.70;;
2107;SDS011;1060;52.492;13.388;2022-12-04T19:26:26;152.60;;;68.47;;
2107;SDS011;1060;52.492;13.388;2022-12-04T19:29:05;144.55;;;69.50;;
2107;SDS011;1060;52.492;13.388;2022-12-04T19:31:40;132.00;;;64.53;;
2107;SDS011;1060;52.492;13.388;2022-12-04T19:34:10;135.55;;;68.43;;
2107;SDS011;1060;52.492;13.388;2022-12-04T19:36:36;151.98;;;69.90;;
2107;SDS011;1060;52.492;13.388;2022-12-04T19:45:53;139.65;;;56.22;;
2107;SDS011;1060;52.492;13.388;2022-12-04T19:48:24;158.57;;;67.22;;
2107;SDS011;1060;52.492;13.388;2022-12-04T19:51:14;121.22;;;67.28;;
2107;SDS011;1060;52.492;13.388;2022-12-04T19:53:44;133.98;;;60.95;;
2107;SDS011;1060;52.492;13.388;2022-12-04T19:56:35;117.53;;;58.63;;
2107;SDS011;1060;52.492;13.388;2022-12-04T19:59:07;123.63;;;71.70;;
2107;SDS011;1060;52.492;13.388;2022-12-04T20:02:43;118.53;;;63.30;;
2107;SDS011;1060;52.492;13.388;2022-12-04T20:05:01;124.57;;;65.07;;
2107;SDS011;1060;52.492;13.388;2022-12-04T20:08:03;129.00;;;64.00;;
2107;SDS011;1060;52.492;13.388;2022-12-04T20:11:03;123.38;;;64.57;;
2107;SDS011;1060;52.492;13.388;2022-12-04T20:14:03;134.00;;;64.05;;
2107;SDS011;1060;52.492;13.388;2022-12-04T20:16:35;124.93;;;63.50;;
2107;SDS011;1060;52.492;13.388;2022-12-04T20:19:36;133.63;;;60.55;;
2107;SDS011;1060;52.492;13.388;2022-12-04T20:22:12;140.07;;;65.95;;
2107;SDS011;1060;52.492;13.388;2022-12-04T20:24:50;137.30;;;63.75;;
2107;SDS011;1060;52.492;13.388;2022-12-04T20:27:19;148.10;;;67.68;;